createdAt,value
2022-11-20T00:03:55.620Z,6.10
2022-11-20T00:08:06.602Z,3.37
2022-11-20T00:12:15.566Z,5.80
2022-11-20T00:16:26.194Z,4.67
2022-11-20T00:20:35.100Z,4.70
2022-11-20T00:24:45.501Z,4.57
2022-11-20T00:28:55.813Z,6.97
2022-11-20T00:33:04.697Z,5.17
2022-11-20T00:37:13.657Z,3.93
2022-11-20T00:41:25.768Z,6.23
2022-11-20T00:45:34.802Z,6.10
2022-11-20T00:49:43.736Z,4.20
2022-11-20T00:53:52.721Z,4.53
2022-11-20T00:58:04.668Z,4.70
2022-11-20T01:02:13.863Z,4.80
2022-11-20T01:06:24.442Z,6.33
2022-11-20T01:10:33.394Z,7.20
2022-11-20T01:14:43.810Z,3.50
2022-11-20T01:18:54.611Z,7.43
2022-11-20T01:23:03.570Z,7.47
2022-11-20T01:27:12.631Z,4.10
2022-11-20T01:31:24.918Z,8.47
2022-11-20T01:35:33.835Z,8.20
2022-11-20T01:39:42.689Z,5.47
2022-11-20T01:43:51.880Z,5.30
2022-11-20T01:48:02.295Z,9.70
2022-11-20T01:52:18.740Z,5.50
2022-11-20T01:56:29.685Z,5.37
2022-11-20T02:00:38.834Z,9.10
2022-11-20T02:04:50.187Z,8.47
2022-11-20T02:08:59.408Z,7.93
2022-11-20T02:13:25.942Z,5.40
2022-11-20T02:17:34.976Z,3.80
2022-11-20T02:21:50.713Z,6.53
2022-11-20T02:26:03.543Z,5.53
2022-11-20T02:30:14.114Z,5.27
2022-11-20T02:34:23.010Z,9.57
2022-11-20T02:38:32.165Z,9.13
2022-11-20T02:42:42.978Z,5.97
2022-11-20T02:46:51.894Z,3.93
2022-11-20T02:51:00.808Z,3.80
2022-11-20T02:55:10.402Z,5.40
2022-11-20T02:59:21.075Z,4.03
2022-11-20T03:03:30.127Z,8.97
2022-11-20T03:07:39.164Z,11.33
2022-11-20T03:11:48.181Z,10.43
2022-11-20T03:15:58.513Z,6.17
2022-11-20T03:20:08.946Z,7.20
2022-11-20T03:24:18.615Z,5.83
2022-11-20T03:28:27.534Z,9.90
2022-11-20T03:32:38.107Z,8.90
2022-11-20T03:36:47.467Z,10.53
2022-11-20T03:41:01.517Z,10.80
2022-11-20T03:45:11.292Z,7.60
2022-11-20T03:49:22.065Z,12.67
2022-11-20T03:53:31.057Z,11.30
2022-11-20T03:57:39.993Z,16.73
2022-11-20T04:01:49.705Z,13.93
2022-11-20T04:06:04.783Z,12.37
2022-11-20T04:10:13.890Z,14.03
2022-11-20T04:14:23.002Z,14.63
2022-11-20T04:18:32.201Z,11.50
2022-11-20T04:22:42.765Z,15.27
2022-11-20T04:26:51.680Z,15.63
2022-11-20T04:31:08.343Z,15.50
2022-11-20T04:35:17.786Z,12.77
2022-11-20T04:39:28.743Z,10.83
2022-11-20T04:43:37.873Z,13.30
2022-11-20T04:47:47.101Z,16.50
2022-11-20T04:51:56.545Z,21.50
2022-11-20T04:56:09.359Z,14.27
2022-11-20T05:00:19.062Z,14.47
2022-11-20T05:04:28.005Z,15.83
2022-11-20T05:08:36.930Z,16.97
2022-11-20T05:12:47.320Z,17.83
2022-11-20T05:16:56.381Z,13.73
2022-11-20T05:21:06.031Z,19.00
2022-11-20T05:25:15.144Z,16.63
2022-11-20T05:29:25.605Z,11.63
2022-11-20T05:33:35.081Z,13.97
2022-11-20T05:37:43.900Z,9.23
2022-11-20T05:42:13.132Z,13.07
2022-11-20T05:46:28.226Z,12.70
2022-11-20T05:50:38.048Z,10.87
2022-11-20T05:54:47.083Z,15.33
2022-11-20T05:58:56.049Z,10.73
2022-11-20T06:03:06.500Z,20.00
2022-11-20T06:07:15.456Z,11.93
2022-11-20T06:11:24.579Z,7.83
2022-11-20T06:15:33.418Z,14.90
2022-11-20T06:19:44.198Z,7.60
2022-11-20T06:23:55.020Z,11.80
2022-11-20T06:28:06.012Z,10.97
2022-11-20T06:32:14.958Z,10.57
2022-11-20T06:36:25.822Z,8.33
2022-11-20T06:40:34.709Z,13.37
2022-11-20T06:44:43.736Z,12.70
2022-11-20T06:48:53.057Z,11.00
2022-11-20T06:53:06.291Z,11.27
2022-11-20T06:57:15.533Z,11.50
2022-11-20T07:01:24.577Z,10.80
2022-11-20T07:05:33.715Z,7.37
2022-11-20T07:09:44.072Z,13.17
2022-11-20T07:13:53.196Z,12.30
2022-11-20T07:18:02.384Z,8.80
2022-11-20T07:22:11.647Z,12.33
2022-11-20T07:26:22.013Z,12.33
2022-11-20T07:30:31.312Z,9.67
2022-11-20T07:34:40.318Z,15.23
2022-11-20T07:38:49.348Z,10.77
2022-11-20T07:42:59.691Z,14.00
2022-11-20T07:47:08.702Z,12.50
2022-11-20T07:51:17.755Z,13.57
2022-11-20T07:55:26.545Z,14.03
2022-11-20T07:59:37.081Z,17.97
2022-11-20T08:03:46.212Z,11.97
2022-11-20T08:07:55.080Z,9.90
2022-11-20T08:12:21.061Z,18.00
2022-11-20T08:16:31.660Z,13.73
2022-11-20T08:20:41.254Z,25.57
2022-11-20T08:24:50.371Z,19.50
2022-11-20T08:28:59.590Z,19.20
2022-11-20T08:33:11.957Z,21.07
2022-11-20T08:37:20.833Z,22.90
2022-11-20T08:41:29.780Z,26.53
2022-11-20T08:45:38.752Z,23.67
2022-11-20T08:49:49.047Z,20.37
2022-11-20T08:53:58.011Z,19.20
2022-11-20T08:58:07.516Z,20.37
2022-11-20T09:02:16.623Z,22.60
2022-11-20T09:06:26.997Z,19.63
2022-11-20T09:10:35.904Z,20.93
2022-11-20T09:14:44.797Z,21.43
2022-11-20T09:19:07.223Z,19.53
2022-11-20T09:23:23.875Z,23.53
2022-11-20T09:27:32.793Z,23.53
2022-11-20T09:31:41.818Z,22.67
2022-11-20T09:35:50.753Z,22.60
2022-11-20T09:40:01.229Z,23.60
2022-11-20T09:44:22.512Z,18.70
2022-11-20T09:48:50.428Z,21.83
2022-11-20T09:53:14.690Z,26.10
2022-11-20T09:57:32.418Z,24.00
2022-11-20T10:01:44.039Z,23.03
2022-11-20T10:05:56.705Z,17.60
2022-11-20T10:10:06.119Z,22.20
2022-11-20T10:14:28.041Z,21.47
2022-11-20T10:18:51.005Z,20.73
2022-11-20T10:23:25.986Z,18.77
2022-11-20T10:27:52.498Z,21.20
2022-11-20T10:32:07.064Z,17.23
2022-11-20T10:36:21.734Z,12.20
2022-11-20T10:40:37.037Z,15.37
2022-11-20T10:45:06.668Z,17.63
2022-11-20T10:49:21.370Z,14.50
2022-11-20T10:53:56.652Z,13.97
2022-11-20T10:58:13.882Z,18.60
2022-11-20T11:02:27.216Z,13.40
2022-11-20T11:06:40.410Z,14.80
2022-11-20T11:10:54.496Z,17.57
2022-11-20T11:15:03.602Z,17.67
2022-11-20T11:19:16.904Z,20.17
2022-11-20T11:23:34.966Z,17.10
2022-11-20T11:27:50.143Z,18.17
2022-11-20T11:32:07.865Z,13.57
2022-11-20T11:36:22.484Z,11.93
2022-11-20T11:40:35.533Z,17.20
2022-11-20T11:45:06.451Z,20.53
2022-11-20T11:49:20.030Z,16.50
2022-11-20T11:53:30.592Z,18.60
2022-11-20T11:57:50.331Z,17.30
2022-11-20T12:02:05.296Z,16.70
2022-11-20T12:06:17.779Z,14.43
2022-11-20T12:10:43.191Z,13.47
2022-11-20T12:14:57.719Z,14.57
2022-11-20T12:19:12.980Z,11.33
2022-11-20T12:23:32.477Z,16.40
2022-11-20T12:28:06.275Z,16.73
2022-11-20T12:32:57.272Z,10.83
2022-11-20T12:37:16.533Z,15.60
2022-11-20T12:41:57.885Z,8.60
2022-11-20T12:46:17.840Z,20.90
2022-11-20T12:50:47.578Z,12.57
2022-11-20T12:55:33.588Z,21.83
2022-11-20T13:00:03.904Z,14.03
2022-11-20T13:04:42.703Z,18.30
2022-11-20T13:08:57.177Z,16.83
2022-11-20T13:13:16.108Z,17.67
2022-11-20T13:17:32.545Z,15.03
2022-11-20T13:21:44.521Z,18.40
2022-11-20T13:25:55.212Z,16.87
2022-11-20T13:30:18.609Z,16.40
2022-11-20T13:34:40.420Z,15.40
2022-11-20T13:38:51.941Z,15.63
2022-11-20T13:43:13.569Z,12.20
2022-11-20T13:47:27.129Z,12.93
2022-11-20T13:51:45.257Z,14.27
2022-11-20T13:56:02.294Z,13.20
2022-11-20T14:00:15.514Z,11.80
2022-11-20T14:04:32.071Z,15.90
2022-11-20T14:08:44.760Z,13.90
2022-11-20T14:12:53.936Z,18.13
2022-11-20T14:17:09.613Z,14.60
2022-11-20T14:21:27.643Z,16.30
2022-11-20T14:25:37.380Z,17.47
2022-11-20T14:29:49.741Z,13.40
2022-11-20T14:33:59.414Z,10.40
2022-11-20T14:38:18.622Z,20.43
2022-11-20T14:42:29.071Z,14.57
2022-11-20T14:46:39.738Z,14.70
2022-11-20T14:50:48.994Z,16.43
2022-11-20T14:55:01.542Z,15.33
2022-11-20T14:59:12.040Z,19.77
2022-11-20T15:03:21.157Z,13.63
2022-11-20T15:07:31.745Z,15.47
2022-11-20T15:11:42.545Z,14.67
2022-11-20T15:15:53.563Z,15.77
2022-11-20T15:20:06.149Z,15.57
2022-11-20T15:24:15.796Z,16.33
2022-11-20T15:28:31.089Z,18.63
2022-11-20T15:32:40.169Z,17.60
2022-11-20T15:36:49.292Z,18.97
2022-11-20T15:40:58.360Z,26.27
2022-11-20T15:45:09.634Z,23.10
2022-11-20T15:49:51.864Z,12.60
2022-11-20T15:54:16.265Z,18.67
2022-11-20T16:02:59.823Z,13.77
2022-11-20T16:07:43.474Z,19.10
2022-11-20T16:16:34.313Z,14.80
2022-11-20T16:20:45.774Z,15.90
2022-11-20T16:24:55.140Z,14.20
2022-11-20T16:29:33.332Z,22.13
2022-11-20T16:33:42.958Z,18.63
2022-11-20T16:37:56.038Z,21.77
2022-11-20T16:42:08.511Z,20.97
2022-11-20T16:46:18.548Z,19.57
2022-11-20T16:50:28.764Z,19.33
2022-11-20T16:54:39.404Z,16.47
2022-11-20T16:58:50.421Z,12.10
2022-11-20T17:03:01.466Z,19.97
2022-11-20T17:07:11.151Z,21.20
2022-11-20T17:11:22.343Z,15.00
2022-11-20T17:15:31.361Z,17.63
2022-11-20T17:19:40.327Z,18.73
2022-11-20T17:23:49.607Z,18.80
2022-11-20T17:28:00.079Z,18.27
2022-11-20T17:32:08.983Z,18.37
2022-11-20T17:36:19.990Z,16.37
2022-11-20T17:40:29.421Z,19.50
2022-11-20T17:44:42.105Z,16.10
2022-11-20T17:48:52.240Z,17.30
2022-11-20T17:53:01.284Z,18.83
2022-11-20T17:57:28.637Z,18.67
2022-11-20T18:01:40.192Z,18.00
2022-11-20T18:05:49.564Z,19.40
2022-11-20T18:09:58.709Z,15.57
2022-11-20T18:14:26.791Z,16.53
2022-11-20T18:18:37.557Z,18.80
2022-11-20T18:22:46.847Z,18.07
2022-11-20T18:26:56.333Z,15.73
2022-11-20T18:31:08.206Z,13.97
2022-11-20T18:35:18.976Z,20.43
2022-11-20T18:39:28.245Z,16.03
2022-11-20T18:43:56.174Z,16.03
2022-11-20T18:48:05.512Z,21.07
2022-11-20T18:52:16.186Z,16.67
2022-11-20T18:56:25.689Z,13.10
2022-11-20T19:00:35.027Z,15.93
2022-11-20T19:04:44.497Z,17.73
2022-11-20T19:08:55.686Z,17.60
2022-11-20T19:13:05.105Z,14.40
2022-11-20T19:17:14.842Z,13.83
2022-11-20T19:21:25.604Z,15.23
2022-11-20T19:25:38.263Z,12.83
2022-11-20T19:29:47.547Z,15.30
2022-11-20T19:33:59.216Z,13.90
2022-11-20T19:38:08.131Z,13.93
2022-11-20T19:42:18.816Z,18.80
2022-11-20T19:46:28.484Z,15.37
2022-11-20T19:50:37.480Z,15.00
2022-11-20T19:54:47.395Z,14.27
2022-11-20T19:58:59.121Z,21.37
2022-11-20T20:03:08.018Z,15.50
2022-11-20T20:07:17.413Z,11.63
2022-11-20T20:11:28.016Z,16.00
2022-11-20T20:15:42.471Z,23.83
2022-11-20T20:19:51.528Z,17.00
2022-11-20T20:24:01.475Z,12.83
2022-11-20T20:28:10.607Z,20.93
2022-11-20T20:32:21.200Z,16.23
2022-11-20T20:36:30.867Z,15.00
2022-11-20T20:40:39.802Z,14.57
2022-11-20T20:45:05.881Z,14.60
2022-11-20T20:49:16.764Z,17.47
2022-11-20T20:53:27.711Z,15.93
2022-11-20T20:57:36.705Z,13.77
2022-11-20T21:01:45.682Z,16.00
2022-11-20T21:05:59.279Z,15.70
2022-11-20T21:10:08.846Z,16.97
2022-11-20T21:14:17.936Z,12.80
2022-11-20T21:18:27.656Z,20.97
2022-11-20T21:22:41.548Z,16.83
2022-11-20T23:57:26.669Z,17.77
